createdAt,value
2016-09-03T00:00:52.407Z,958.93
2016-09-03T00:01:35.639Z,958.94
2016-09-03T00:02:47.539Z,958.93
2016-09-03T00:03:49.638Z,958.94
2016-09-03T00:04:48.340Z,958.94
2016-09-03T00:05:38.391Z,958.92
2016-09-03T00:06:37.529Z,958.91
2016-09-03T00:07:45.130Z,958.90
2016-09-03T00:08:45.650Z,958.95
2016-09-03T00:09:46.091Z,958.92
2016-09-03T00:10:40.694Z,958.92
2016-09-03T00:11:45.580Z,958.93
2016-09-03T00:12:41.791Z,958.93
2016-09-03T00:13:45.417Z,958.88
2016-09-03T00:14:40.746Z,958.91
2016-09-03T00:15:45.111Z,958.89
2016-09-03T00:16:54.002Z,958.85
2016-09-03T00:17:53.352Z,958.87
2016-09-03T00:18:43.568Z,958.86
2016-09-03T00:19:50.354Z,958.86
2016-09-03T00:20:45.083Z,958.85
2016-09-03T00:21:47.532Z,958.80
2016-09-03T00:22:40.145Z,958.86
2016-09-03T00:23:54.175Z,958.84
2016-09-03T00:24:49.357Z,958.87
2016-09-03T00:25:43.977Z,958.85
2016-09-03T00:26:43.725Z,958.83
2016-09-03T00:27:40.973Z,958.85
2016-09-03T00:28:54.271Z,958.86
2016-09-03T00:29:39.920Z,958.82
2016-09-03T00:30:45.265Z,958.80
2016-09-03T00:31:34.464Z,958.84
2016-09-03T00:32:48.582Z,958.78
2016-09-03T00:33:47.342Z,958.79
2016-09-03T00:34:35.181Z,958.77
2016-09-03T00:35:47.845Z,958.75
2016-09-03T00:36:44.034Z,958.80
2016-09-03T00:37:47.290Z,958.78
2016-09-03T00:38:33.494Z,958.80
2016-09-03T00:39:40.484Z,958.84
2016-09-03T00:40:50.747Z,958.82
2016-09-03T00:41:33.304Z,958.83
2016-09-03T00:42:40.369Z,958.86
2016-09-03T00:43:43.769Z,958.83
2016-09-03T00:44:34.498Z,958.83
2016-09-03T00:45:45.143Z,958.83
2016-09-03T00:46:55.193Z,958.79
2016-09-03T00:47:44.055Z,958.81
2016-09-03T00:48:48.857Z,958.83
2016-09-03T00:49:44.931Z,958.76
2016-09-03T00:50:44.931Z,958.80
2016-09-03T00:51:51.170Z,958.83
2016-09-03T00:52:42.687Z,958.78
2016-09-03T00:53:49.520Z,958.77
2016-09-03T00:54:44.018Z,958.77
2016-09-03T00:55:40.686Z,958.77
2016-09-03T00:56:34.747Z,958.81
2016-09-03T00:57:49.069Z,958.83
2016-09-03T00:58:46.163Z,958.79
2016-09-03T00:59:54.285Z,958.86
2016-09-03T01:00:47.476Z,958.84
2016-09-03T01:01:34.644Z,958.79
2016-09-03T01:02:39.910Z,958.79
2016-09-03T01:03:41.666Z,958.81
2016-09-03T01:04:41.568Z,958.81
2016-09-03T01:05:44.223Z,958.80
2016-09-03T01:06:52.620Z,958.83
2016-09-03T01:07:40.898Z,958.77
2016-09-03T01:08:44.050Z,958.80
2016-09-03T01:09:49.672Z,958.78
2016-09-03T01:11:00.541Z,958.83
2016-09-03T01:11:42.870Z,958.81
2016-09-03T01:12:33.787Z,958.85
2016-09-03T01:13:44.831Z,958.84
2016-09-03T01:14:44.814Z,958.82
2016-09-03T01:15:43.938Z,958.85
2016-09-03T01:16:50.317Z,958.86
2016-09-03T01:17:44.000Z,958.89
2016-09-03T01:18:44.371Z,958.92
2016-09-03T01:19:48.603Z,958.88
2016-09-03T01:20:44.969Z,958.89
2016-09-03T01:21:49.248Z,958.88
2016-09-03T01:22:50.203Z,958.87
2016-09-03T01:23:29.861Z,958.87
2016-09-03T01:24:49.760Z,958.81
2016-09-03T01:25:51.210Z,958.86
2016-09-03T01:26:47.771Z,958.84
2016-09-03T01:27:34.453Z,958.89
2016-09-03T01:28:43.399Z,958.82
2016-09-03T01:29:46.218Z,958.83
2016-09-03T01:30:48.354Z,958.83
2016-09-03T01:31:49.500Z,958.80
2016-09-03T01:32:43.431Z,958.80
2016-09-03T01:33:40.946Z,958.81
2016-09-03T01:34:46.232Z,958.80
2016-09-03T01:35:53.842Z,958.75
2016-09-03T01:36:47.366Z,958.77
2016-09-03T01:37:38.889Z,958.78
2016-09-03T01:38:44.937Z,958.73
2016-09-03T01:39:44.801Z,958.78
2016-09-03T01:40:40.733Z,958.74
2016-09-03T01:41:42.179Z,958.79
2016-09-03T01:42:49.733Z,958.83
2016-09-03T01:43:43.898Z,958.74
2016-09-03T01:44:41.129Z,958.74
2016-09-03T01:45:40.457Z,958.72
2016-09-03T01:46:34.579Z,958.77
2016-09-03T01:47:49.076Z,958.75
2016-09-03T01:48:49.896Z,958.80
2016-09-03T01:49:43.437Z,958.80
2016-09-03T01:50:44.315Z,958.82
2016-09-03T01:52:04.341Z,958.79
2016-09-03T01:52:54.720Z,958.81
2016-09-03T01:53:48.663Z,958.75
2016-09-03T01:54:40.984Z,958.78
2016-09-03T01:55:49.384Z,958.76
2016-09-03T01:56:34.236Z,958.73
2016-09-03T01:57:43.769Z,958.77
2016-09-03T01:58:43.123Z,958.74
2016-09-03T01:59:47.666Z,958.76
2016-09-03T02:00:40.477Z,958.78
2016-09-03T02:01:40.987Z,958.75
2016-09-03T02:02:49.435Z,958.76
2016-09-03T02:03:48.956Z,958.73
2016-09-03T02:04:40.033Z,958.72
2016-09-03T02:05:47.675Z,958.77
2016-09-03T02:06:40.532Z,958.72
2016-09-03T02:07:43.843Z,958.70
2016-09-03T02:08:43.115Z,958.73
2016-09-03T02:09:45.755Z,958.73
2016-09-03T02:10:32.991Z,958.71
2016-09-03T02:11:47.134Z,958.70
2016-09-03T02:12:44.836Z,958.77
2016-09-03T02:13:41.492Z,958.71
2016-09-03T02:14:44.430Z,958.72
2016-09-03T02:15:44.095Z,958.74
2016-09-03T02:16:40.443Z,958.71
2016-09-03T02:17:40.504Z,958.67
2016-09-03T02:18:29.264Z,958.62
2016-09-03T02:19:54.902Z,958.62
2016-09-03T02:20:44.526Z,958.60
2016-09-03T02:21:44.236Z,958.61
2016-09-03T02:22:34.863Z,958.57
2016-09-03T02:23:40.943Z,958.57
2016-09-03T02:24:53.150Z,958.61
2016-09-03T02:25:43.666Z,958.66
2016-09-03T02:26:44.630Z,958.66
2016-09-03T02:27:40.672Z,958.67
2016-09-03T02:28:44.627Z,958.66
2016-09-03T02:29:59.665Z,958.65
2016-09-03T02:30:48.456Z,958.62
2016-09-03T02:31:47.477Z,958.63
2016-09-03T02:32:38.660Z,958.57
2016-09-03T02:33:53.429Z,958.61
2016-09-03T02:34:44.099Z,958.57
2016-09-03T02:35:54.326Z,958.60
2016-09-03T02:36:38.747Z,958.57
2016-09-03T02:37:34.016Z,958.61
2016-09-03T02:38:48.978Z,958.63
2016-09-03T02:39:44.272Z,958.62
2016-09-03T02:40:40.799Z,958.64
2016-09-03T02:41:32.785Z,958.61
2016-09-03T02:42:38.332Z,958.61
2016-09-03T02:43:40.362Z,958.61
2016-09-03T02:44:41.110Z,958.58
2016-09-03T02:45:46.195Z,958.58
2016-09-03T02:46:49.012Z,958.54
2016-09-03T02:47:46.217Z,958.57
2016-09-03T02:48:41.961Z,958.60
2016-09-03T02:49:40.563Z,958.62
2016-09-03T02:50:43.166Z,958.56
2016-09-03T02:51:39.951Z,958.57
2016-09-03T02:52:35.459Z,958.53
2016-09-03T02:53:49.664Z,958.53
2016-09-03T02:54:48.798Z,958.55
2016-09-03T02:55:40.189Z,958.52
2016-09-03T02:56:43.413Z,958.52
2016-09-03T02:57:41.272Z,958.51
2016-09-03T02:58:42.414Z,958.52
2016-09-03T02:59:40.974Z,958.54
2016-09-03T03:00:47.515Z,958.51
2016-09-03T03:01:49.678Z,958.55
2016-09-03T03:02:39.800Z,958.56
2016-09-03T03:03:41.229Z,958.55
2016-09-03T03:04:34.786Z,958.57
2016-09-03T03:05:41.305Z,958.60
2016-09-03T03:06:43.483Z,958.60
2016-09-03T03:07:45.875Z,958.62
2016-09-03T03:08:40.711Z,958.64
2016-09-03T03:09:41.047Z,958.61
2016-09-03T03:10:45.755Z,958.59
2016-09-03T03:11:47.163Z,958.61
2016-09-03T03:12:49.475Z,958.64
2016-09-03T03:13:40.669Z,958.64
2016-09-03T03:14:45.799Z,958.64
2016-09-03T03:15:55.646Z,958.65
2016-09-03T03:16:49.109Z,958.65
2016-09-03T03:17:48.848Z,958.66
2016-09-03T03:18:48.241Z,958.65
2016-09-03T03:19:45.536Z,958.68
2016-09-03T03:20:44.946Z,958.71
2016-09-03T03:21:48.595Z,958.66
2016-09-03T03:22:44.551Z,958.66
2016-09-03T03:23:49.346Z,958.67
2016-09-03T03:24:45.350Z,958.71
2016-09-03T03:25:41.493Z,958.71
2016-09-03T03:26:45.530Z,958.70
2016-09-03T03:27:40.692Z,958.66
2016-09-03T03:28:34.476Z,958.65
2016-09-03T03:29:37.099Z,958.70
2016-09-03T03:30:46.629Z,958.71
2016-09-03T03:31:40.456Z,958.72
2016-09-03T03:32:38.574Z,958.72
2016-09-03T03:33:29.634Z,958.72
2016-09-03T03:34:40.664Z,958.70
2016-09-03T03:35:13.094Z,958.71
2016-09-03T03:36:44.543Z,958.72
2016-09-03T03:37:14.344Z,958.69
2016-09-03T03:38:48.126Z,958.65
2016-09-03T03:39:44.418Z,958.68
2016-09-03T03:40:29.469Z,958.68
2016-09-03T03:41:39.045Z,958.66
2016-09-03T03:42:40.345Z,958.66
2016-09-03T03:43:50.030Z,958.62
2016-09-03T03:44:41.077Z,958.68
2016-09-03T03:45:48.307Z,958.64
2016-09-03T03:46:48.772Z,958.65
2016-09-03T03:47:48.778Z,958.65
2016-09-03T03:48:38.533Z,958.63
2016-09-03T03:49:49.115Z,958.62
2016-09-03T03:50:44.710Z,958.65
2016-09-03T03:51:45.662Z,958.62
2016-09-03T03:52:40.703Z,958.63
2016-09-03T03:53:41.037Z,958.59
2016-09-03T03:54:40.304Z,958.63
2016-09-03T03:55:39.906Z,958.61
2016-09-03T03:56:40.142Z,958.56
2016-09-03T03:57:43.938Z,958.63
2016-09-03T03:58:40.430Z,958.61
2016-09-03T03:59:32.109Z,958.64
2016-09-03T04:00:44.786Z,958.61
2016-09-03T04:01:49.438Z,958.59
2016-09-03T04:02:45.591Z,958.62
2016-09-03T04:03:40.016Z,958.63
2016-09-03T04:04:40.190Z,958.61
2016-09-03T04:05:41.513Z,958.58
2016-09-03T04:06:57.396Z,958.60
2016-09-03T04:07:42.257Z,958.61
2016-09-03T04:08:39.409Z,958.60
2016-09-03T04:09:41.530Z,958.59
2016-09-03T04:10:13.948Z,958.60
2016-09-03T04:11:47.657Z,958.61
2016-09-03T04:12:43.024Z,958.62
2016-09-03T04:13:50.421Z,958.62
2016-09-03T04:14:39.445Z,958.67
2016-09-03T04:15:44.356Z,958.59
2016-09-03T04:16:49.176Z,958.65
2016-09-03T04:17:43.232Z,958.68
2016-09-03T04:18:49.583Z,958.68
2016-09-03T04:19:34.649Z,958.67
2016-09-03T04:20:44.572Z,958.69
2016-09-03T04:21:48.785Z,958.69
2016-09-03T04:22:40.836Z,958.69
2016-09-03T04:23:46.229Z,958.69
2016-09-03T04:24:49.638Z,958.70
2016-09-03T04:25:50.851Z,958.66
2016-09-03T04:26:44.619Z,958.70
2016-09-03T04:27:39.962Z,958.69
2016-09-03T04:28:49.821Z,958.68
2016-09-03T04:30:01.200Z,958.65
2016-09-03T04:30:50.250Z,958.69
2016-09-03T04:31:47.906Z,958.70
2016-09-03T04:32:40.863Z,958.68
2016-09-03T04:33:13.515Z,958.71
2016-09-03T04:34:49.226Z,958.72
2016-09-03T04:35:39.374Z,958.72
2016-09-03T04:36:39.789Z,958.70
2016-09-03T04:37:40.800Z,958.73
2016-09-03T04:38:49.735Z,958.72
2016-09-03T04:39:42.775Z,958.73
2016-09-03T04:40:39.675Z,958.73
2016-09-03T04:41:46.259Z,958.79
2016-09-03T04:42:41.485Z,958.75
2016-09-03T04:43:40.814Z,958.75
2016-09-03T04:44:44.897Z,958.75
2016-09-03T04:45:35.658Z,958.74
2016-09-03T04:46:41.895Z,958.73
2016-09-03T04:47:45.070Z,958.67
2016-09-03T04:48:40.674Z,958.71
2016-09-03T04:49:41.369Z,958.71
2016-09-03T04:50:34.083Z,958.75
2016-09-03T04:51:40.880Z,958.75
2016-09-03T04:52:48.552Z,958.76
2016-09-03T04:53:40.051Z,958.80
2016-09-03T04:54:40.725Z,958.76
2016-09-03T04:55:48.802Z,958.76
2016-09-03T04:56:48.019Z,958.79
2016-09-03T04:57:44.119Z,958.77
2016-09-03T04:58:45.811Z,958.74
2016-09-03T04:59:49.455Z,958.73
2016-09-03T05:00:42.105Z,958.75
2016-09-03T05:01:47.714Z,958.72
2016-09-03T05:02:43.843Z,958.74
2016-09-03T05:03:49.453Z,958.71
2016-09-03T05:04:48.674Z,958.77
2016-09-03T05:05:40.542Z,958.77
2016-09-03T05:06:34.809Z,958.75
2016-09-03T05:07:44.037Z,958.75
2016-09-03T05:08:33.730Z,958.76
2016-09-03T05:09:13.694Z,958.76
2016-09-03T05:10:40.160Z,958.77
2016-09-03T05:11:40.480Z,958.80
2016-09-03T05:12:44.766Z,958.76
2016-09-03T05:13:47.068Z,958.81
2016-09-03T05:14:46.283Z,958.76
2016-09-03T05:15:44.538Z,958.77
2016-09-03T05:16:35.147Z,958.78
2016-09-03T05:17:45.951Z,958.78
2016-09-03T05:18:44.763Z,958.78
2016-09-03T05:19:42.009Z,958.80
2016-09-03T05:20:45.067Z,958.77
2016-09-03T05:21:44.361Z,958.82
2016-09-03T05:22:40.986Z,958.80
2016-09-03T05:23:42.205Z,958.83
2016-09-03T05:24:38.976Z,958.78
2016-09-03T05:25:47.444Z,958.83
2016-09-03T05:26:47.690Z,958.75
2016-09-03T05:27:41.198Z,958.79
2016-09-03T05:28:57.247Z,958.75
2016-09-03T05:29:39.433Z,958.79
2016-09-03T05:30:46.181Z,958.77
2016-09-03T05:31:42.185Z,958.77
2016-09-03T05:32:44.433Z,958.80
2016-09-03T05:33:48.789Z,958.80
2016-09-03T05:34:44.659Z,958.81
2016-09-03T05:35:45.542Z,958.84
2016-09-03T05:36:34.347Z,958.85
2016-09-03T05:37:49.058Z,958.82
2016-09-03T05:38:41.079Z,958.85
2016-09-03T05:39:49.550Z,958.86
2016-09-03T05:40:42.630Z,958.86
2016-09-03T05:41:44.187Z,958.84
2016-09-03T05:42:46.796Z,958.81
2016-09-03T05:43:48.508Z,958.85
2016-09-03T05:44:47.121Z,958.85
2016-09-03T05:45:44.614Z,958.86
2016-09-03T05:46:47.968Z,958.85
2016-09-03T05:47:38.555Z,958.83
2016-09-03T05:48:40.889Z,958.84
2016-09-03T05:49:41.534Z,958.87
2016-09-03T05:50:45.235Z,958.83
2016-09-03T05:51:49.598Z,958.85
2016-09-03T05:52:41.103Z,958.82
2016-09-03T05:53:39.948Z,958.82
2016-09-03T05:54:40.459Z,958.85
2016-09-03T05:55:49.266Z,958.85
2016-09-03T05:56:41.398Z,958.85
2016-09-03T05:57:39.470Z,958.84
2016-09-03T05:58:40.253Z,958.83
2016-09-03T05:59:44.447Z,958.88
2016-09-03T06:00:33.209Z,958.86
2016-09-03T06:01:30.181Z,958.91
2016-09-03T06:02:44.742Z,958.90
2016-09-03T06:03:51.586Z,958.91
2016-09-03T06:04:48.109Z,958.93
2016-09-03T06:05:45.222Z,958.92
2016-09-03T06:06:44.465Z,958.94
2016-09-03T06:07:57.412Z,958.92
2016-09-03T06:08:41.612Z,958.94
2016-09-03T06:09:13.207Z,958.94
2016-09-03T06:10:53.378Z,958.95
2016-09-03T06:11:43.947Z,958.96
2016-09-03T06:12:49.407Z,958.95
2016-09-03T06:13:45.107Z,958.98
2016-09-03T06:14:39.508Z,958.97
2016-09-03T06:15:45.717Z,958.94
2016-09-03T06:16:43.815Z,958.93
2016-09-03T06:17:49.606Z,958.96
2016-09-03T06:18:50.387Z,958.95
2016-09-03T06:19:49.606Z,958.97
2016-09-03T06:20:44.817Z,958.96
2016-09-03T06:21:48.958Z,958.97
2016-09-03T06:22:45.490Z,958.97
2016-09-03T06:23:44.627Z,958.95
2016-09-03T06:24:42.682Z,958.98
2016-09-03T06:25:41.698Z,959.00
2016-09-03T06:26:45.661Z,958.99
2016-09-03T06:27:44.709Z,958.94
2016-09-03T06:28:40.203Z,958.95
2016-09-03T06:29:50.488Z,959.00
2016-09-03T06:30:45.030Z,958.99
2016-09-03T06:31:50.439Z,959.04
2016-09-03T06:32:57.444Z,959.07
2016-09-03T06:33:49.920Z,959.07
2016-09-03T06:34:44.680Z,959.08
2016-09-03T06:35:35.478Z,959.09
2016-09-03T06:36:44.756Z,959.11
2016-09-03T06:37:44.245Z,959.07
2016-09-03T06:38:44.620Z,959.11
2016-09-03T06:39:35.093Z,959.11
2016-09-03T06:40:42.309Z,959.12
2016-09-03T06:41:44.282Z,959.10
2016-09-03T06:42:43.931Z,959.15
2016-09-03T06:43:44.762Z,959.18
2016-09-03T06:44:49.500Z,959.19
2016-09-03T06:45:40.974Z,959.20
2016-09-03T06:46:44.227Z,959.23
2016-09-03T06:47:49.934Z,959.26
2016-09-03T06:48:45.304Z,959.29
2016-09-03T06:49:40.789Z,959.22
2016-09-03T06:50:50.441Z,959.24
2016-09-03T06:51:45.647Z,959.26
2016-09-03T06:52:33.948Z,959.23
2016-09-03T06:53:50.316Z,959.27
2016-09-03T06:54:47.238Z,959.27
2016-09-03T06:55:34.869Z,959.26
2016-09-03T06:56:45.235Z,959.27
2016-09-03T06:57:44.834Z,959.27
2016-09-03T06:58:44.696Z,959.27
2016-09-03T06:59:41.913Z,959.23
2016-09-03T07:00:31.899Z,959.26
2016-09-03T07:01:43.382Z,959.27
2016-09-03T07:02:43.348Z,959.30
2016-09-03T07:03:50.201Z,959.34
2016-09-03T07:04:45.305Z,959.29
2016-09-03T07:05:37.993Z,959.29
2016-09-03T07:06:46.583Z,959.34
2016-09-03T07:07:40.483Z,959.32
2016-09-03T07:08:48.092Z,959.31
2016-09-03T07:09:40.990Z,959.31
2016-09-03T07:10:47.837Z,959.30
2016-09-03T07:11:44.703Z,959.29
2016-09-03T07:12:40.457Z,959.32
2016-09-03T07:13:49.695Z,959.32
2016-09-03T07:14:40.455Z,959.31
2016-09-03T07:15:40.220Z,959.35
2016-09-03T07:16:49.689Z,959.36
2016-09-03T07:17:44.928Z,959.42
2016-09-03T07:18:40.570Z,959.40
2016-09-03T07:19:41.008Z,959.41
2016-09-03T07:20:45.062Z,959.37
2016-09-03T07:21:44.295Z,959.40
2016-09-03T07:22:40.664Z,959.41
2016-09-03T07:23:49.616Z,959.42
2016-09-03T07:24:39.683Z,959.47
2016-09-03T07:25:44.641Z,959.48
2016-09-03T07:26:41.892Z,959.50
2016-09-03T07:27:47.293Z,959.51
2016-09-03T07:28:47.850Z,959.54
2016-09-03T07:29:43.131Z,959.53
2016-09-03T07:30:48.833Z,959.53
2016-09-03T07:31:38.646Z,959.53
2016-09-03T07:32:44.928Z,959.47
2016-09-03T07:33:31.937Z,959.54
2016-09-03T07:34:45.415Z,959.56
2016-09-03T07:35:38.217Z,959.59
2016-09-03T07:36:24.864Z,959.64
2016-09-03T07:37:42.276Z,959.62
2016-09-03T07:38:57.466Z,959.60
2016-09-03T07:39:47.534Z,959.55
2016-09-03T07:40:38.893Z,959.57
2016-09-03T07:41:44.940Z,959.57
2016-09-03T07:42:35.387Z,959.58
2016-09-03T07:43:43.047Z,959.58
2016-09-03T07:44:40.802Z,959.57
2016-09-03T07:45:48.113Z,959.55
2016-09-03T07:46:49.398Z,959.58
2016-09-03T07:47:39.968Z,959.56
2016-09-03T07:48:49.314Z,959.58
2016-09-03T07:49:50.151Z,959.59
2016-09-03T07:50:39.373Z,959.55
2016-09-03T07:51:40.741Z,959.60
2016-09-03T07:52:50.148Z,959.61
2016-09-03T07:53:40.454Z,959.63
2016-09-03T07:54:45.814Z,959.63
2016-09-03T07:55:49.777Z,959.58
2016-09-03T07:56:45.861Z,959.61
2016-09-03T07:57:38.066Z,959.60
2016-09-03T07:58:45.322Z,959.59
2016-09-03T08:00:01.530Z,959.61
2016-09-03T08:00:38.433Z,959.57
2016-09-03T08:01:33.247Z,959.57
2016-09-03T08:02:40.869Z,959.58
2016-09-03T08:03:44.596Z,959.55
2016-09-03T08:04:33.361Z,959.56
2016-09-03T08:05:30.655Z,959.59
2016-09-03T08:06:49.525Z,959.59
2016-09-03T08:07:48.009Z,959.57
2016-09-03T08:08:33.697Z,959.55
2016-09-03T08:09:31.090Z,959.57
2016-09-03T08:10:47.876Z,959.55
2016-09-03T08:11:54.515Z,959.56
2016-09-03T08:12:12.766Z,959.56
2016-09-03T08:13:44.495Z,959.53
2016-09-03T08:14:40.892Z,959.55
2016-09-03T08:15:38.940Z,959.56
2016-09-03T08:16:49.995Z,959.54
2016-09-03T08:17:48.153Z,959.53
2016-09-03T08:18:41.974Z,959.51
2016-09-03T08:19:44.910Z,959.52
2016-09-03T08:20:49.169Z,959.54
2016-09-03T08:21:38.750Z,959.51
2016-09-03T08:22:33.983Z,959.55
2016-09-03T08:23:44.798Z,959.56
2016-09-03T08:24:28.987Z,959.59
2016-09-03T08:25:44.693Z,959.58
2016-09-03T08:26:45.706Z,959.56
2016-09-03T08:27:48.648Z,959.55
2016-09-03T08:28:50.816Z,959.56
2016-09-03T08:29:40.528Z,959.57
2016-09-03T08:30:40.503Z,959.63
2016-09-03T08:31:40.897Z,959.60
2016-09-03T08:32:44.338Z,959.62
2016-09-03T08:33:40.764Z,959.63
2016-09-03T08:34:45.213Z,959.63
2016-09-03T08:35:41.211Z,959.62
2016-09-03T08:36:49.369Z,959.65
2016-09-03T08:37:49.244Z,959.66
2016-09-03T08:38:20.688Z,959.65
2016-09-03T08:39:44.124Z,959.66
2016-09-03T08:40:43.447Z,959.66
2016-09-03T08:41:42.605Z,959.70
2016-09-03T08:42:44.442Z,959.69
2016-09-03T08:43:48.207Z,959.68
2016-09-03T08:44:24.121Z,959.69
2016-09-03T08:45:49.394Z,959.66
2016-09-03T08:46:44.811Z,959.70
2016-09-03T08:47:41.137Z,959.66
2016-09-03T08:48:54.392Z,959.67
2016-09-03T08:49:43.923Z,959.63
2016-09-03T08:50:44.630Z,959.64
2016-09-03T08:51:44.789Z,959.68
2016-09-03T08:52:35.142Z,959.67
2016-09-03T08:53:46.306Z,959.67
2016-09-03T08:54:34.415Z,959.68
2016-09-03T08:55:39.717Z,959.66
2016-09-03T08:56:43.803Z,959.67
2016-09-03T08:57:44.708Z,959.69
2016-09-03T08:58:50.671Z,959.67
2016-09-03T08:59:34.848Z,959.71
2016-09-03T09:00:45.194Z,959.68
2016-09-03T09:01:44.536Z,959.69
2016-09-03T09:02:33.655Z,959.70
2016-09-03T09:03:32.727Z,959.71
2016-09-03T09:04:53.003Z,959.72
2016-09-03T09:05:37.213Z,959.75
2016-09-03T09:06:43.772Z,959.72
2016-09-03T09:07:43.467Z,959.72
2016-09-03T09:08:41.789Z,959.73
2016-09-03T09:09:33.385Z,959.75
2016-09-03T09:10:41.148Z,959.75
2016-09-03T09:11:44.232Z,959.77
2016-09-03T09:12:49.915Z,959.79
2016-09-03T09:13:43.941Z,959.79
2016-09-03T09:14:43.939Z,959.76
2016-09-03T09:15:45.714Z,959.75
2016-09-03T09:16:43.348Z,959.78
2016-09-03T09:17:45.430Z,959.78
2016-09-03T09:18:40.488Z,959.77
2016-09-03T09:19:48.068Z,959.83
2016-09-03T09:20:45.332Z,959.80
2016-09-03T09:21:48.942Z,959.78
2016-09-03T09:22:34.404Z,959.81
2016-09-03T09:23:41.231Z,959.81
2016-09-03T09:24:44.657Z,959.80
2016-09-03T09:25:49.269Z,959.81
2016-09-03T09:26:54.865Z,959.81
2016-09-03T09:27:48.409Z,959.82
2016-09-03T09:28:49.107Z,959.79
2016-09-03T09:29:55.673Z,959.82
2016-09-03T09:30:40.589Z,959.81
2016-09-03T09:31:44.997Z,959.80
2016-09-03T09:32:54.215Z,959.77
2016-09-03T09:33:54.068Z,959.81
2016-09-03T09:34:48.971Z,959.78
2016-09-03T09:35:49.997Z,959.81
2016-09-03T09:36:50.069Z,959.83
2016-09-03T09:37:45.934Z,959.83
2016-09-03T09:38:40.390Z,959.88
2016-09-03T09:39:50.305Z,959.85
2016-09-03T09:40:49.483Z,959.84
2016-09-03T09:41:28.634Z,959.81
2016-09-03T09:42:49.887Z,959.81
2016-09-03T09:43:38.918Z,959.78
2016-09-03T09:44:41.681Z,959.80
2016-09-03T09:45:45.378Z,959.76
2016-09-03T09:46:44.468Z,959.75
2016-09-03T09:47:54.941Z,959.74
2016-09-03T09:48:49.578Z,959.70
2016-09-03T09:49:50.231Z,959.70
2016-09-03T09:50:50.209Z,959.70
2016-09-03T09:51:49.703Z,959.68
2016-09-03T09:52:49.038Z,959.67
2016-09-03T09:53:44.867Z,959.66
2016-09-03T09:54:41.185Z,959.64
2016-09-03T09:55:49.885Z,959.64
2016-09-03T09:56:41.722Z,959.64
2016-09-03T09:57:48.244Z,959.61
2016-09-03T09:58:41.255Z,959.63
2016-09-03T09:59:31.874Z,959.60
2016-09-03T10:00:46.215Z,959.62
2016-09-03T10:01:44.717Z,959.62
2016-09-03T10:02:49.285Z,959.60
2016-09-03T10:03:38.347Z,959.59
2016-09-03T10:04:50.230Z,959.58
2016-09-03T10:05:44.853Z,959.60
2016-09-03T10:06:45.229Z,959.62
2016-09-03T10:07:43.929Z,959.62
2016-09-03T10:08:49.669Z,959.60
2016-09-03T10:09:50.033Z,959.59
2016-09-03T10:10:47.490Z,959.57
2016-09-03T10:11:33.836Z,959.56
2016-09-03T10:12:27.477Z,959.54
2016-09-03T10:13:44.343Z,959.52
2016-09-03T10:14:28.748Z,959.52
2016-09-03T10:15:33.045Z,959.54
2016-09-03T10:16:28.857Z,959.50
2016-09-03T10:17:27.417Z,959.48
2016-09-03T10:18:28.075Z,959.49
2016-09-03T10:19:36.281Z,959.53
2016-09-03T10:20:30.480Z,959.51
2016-09-03T10:21:40.629Z,959.51
2016-09-03T10:22:40.931Z,959.51
2016-09-03T10:23:27.284Z,959.48
2016-09-03T10:24:22.249Z,959.49
2016-09-03T10:25:29.324Z,959.48
2016-09-03T10:26:45.664Z,959.44
2016-09-03T10:27:17.599Z,959.43
2016-09-03T10:28:50.935Z,959.43
2016-09-03T10:29:17.219Z,959.42
2016-09-03T10:30:22.825Z,959.42
2016-09-03T10:31:33.635Z,959.43
2016-09-03T10:32:22.264Z,959.41
2016-09-03T10:33:20.745Z,959.42
2016-09-03T10:34:34.358Z,959.37
2016-09-03T10:35:27.085Z,959.40
2016-09-03T10:36:41.788Z,959.37
2016-09-03T10:37:49.813Z,959.37
2016-09-03T10:38:39.782Z,959.35
2016-09-03T10:39:27.978Z,959.34
2016-09-03T10:40:45.331Z,959.36
2016-09-03T10:41:50.082Z,959.38
2016-09-03T10:42:34.772Z,959.36
2016-09-03T10:43:27.399Z,959.31
2016-09-03T10:44:52.481Z,959.34
2016-09-03T10:45:49.967Z,959.34
2016-09-03T10:46:49.388Z,959.34
2016-09-03T10:47:42.283Z,959.37
2016-09-03T10:48:56.461Z,959.32
2016-09-03T10:49:40.474Z,959.34
2016-09-03T10:50:40.718Z,959.33
2016-09-03T10:51:43.545Z,959.34
2016-09-03T10:52:40.040Z,959.32
2016-09-03T10:53:44.252Z,959.33
2016-09-03T10:54:43.632Z,959.34
2016-09-03T10:55:35.713Z,959.35
2016-09-03T10:56:53.159Z,959.32
2016-09-03T10:57:50.356Z,959.35
2016-09-03T10:58:39.807Z,959.30
2016-09-03T10:59:43.110Z,959.29
2016-09-03T11:00:45.267Z,959.30
2016-09-03T11:01:39.698Z,959.33
2016-09-03T11:02:45.333Z,959.34
2016-09-03T11:03:50.665Z,959.31
2016-09-03T11:04:33.979Z,959.33
2016-09-03T11:05:53.195Z,959.31
2016-09-03T11:06:34.968Z,959.29
2016-09-03T11:07:40.556Z,959.28
2016-09-03T11:08:44.929Z,959.31
2016-09-03T11:09:49.313Z,959.31
2016-09-03T11:10:36.417Z,959.30
2016-09-03T11:11:44.120Z,959.34
2016-09-03T11:13:01.038Z,959.33
2016-09-03T11:13:40.061Z,959.31
2016-09-03T11:14:49.753Z,959.37
2016-09-03T11:15:49.155Z,959.35
2016-09-03T11:16:49.270Z,959.37
2016-09-03T11:17:45.343Z,959.33
2016-09-03T11:18:41.841Z,959.35
2016-09-03T11:19:50.705Z,959.31
2016-09-03T11:20:46.935Z,959.33
2016-09-03T11:21:48.416Z,959.32
2016-09-03T11:22:44.932Z,959.26
2016-09-03T11:23:55.518Z,959.27
2016-09-03T11:24:33.580Z,959.29
2016-09-03T11:25:28.426Z,959.27
2016-09-03T11:26:47.023Z,959.27
2016-09-03T11:27:41.819Z,959.23
2016-09-03T11:28:45.369Z,959.22
2016-09-03T11:29:43.917Z,959.26
2016-09-03T11:30:41.864Z,959.22
2016-09-03T11:31:48.514Z,959.18
2016-09-03T11:32:44.283Z,959.22
2016-09-03T11:33:48.452Z,959.22
2016-09-03T11:34:48.453Z,959.19
2016-09-03T11:35:42.889Z,959.18
2016-09-03T11:36:39.073Z,959.15
2016-09-03T11:37:36.112Z,959.14
2016-09-03T11:38:45.401Z,959.12
2016-09-03T11:39:44.919Z,959.15
2016-09-03T11:40:43.093Z,959.11
2016-09-03T11:41:47.149Z,959.11
2016-09-03T11:42:44.813Z,959.12
2016-09-03T11:43:40.668Z,959.12
2016-09-03T11:44:51.668Z,959.10
2016-09-03T11:45:44.756Z,959.14
2016-09-03T11:46:53.649Z,959.07
2016-09-03T11:47:42.082Z,959.06
2016-09-03T11:48:33.910Z,959.08
2016-09-03T11:49:40.611Z,959.05
2016-09-03T11:50:45.249Z,959.07
2016-09-03T11:51:44.885Z,959.08
2016-09-03T11:52:45.010Z,959.07
2016-09-03T11:53:50.715Z,959.07
2016-09-03T11:54:47.740Z,959.05
2016-09-03T11:55:47.329Z,959.05
2016-09-03T11:56:39.461Z,959.05
2016-09-03T11:57:43.340Z,959.02
2016-09-03T11:58:45.368Z,958.97
2016-09-03T11:59:54.045Z,959.03
2016-09-03T12:00:49.147Z,958.97
2016-09-03T12:01:42.644Z,958.98
2016-09-03T12:03:02.990Z,958.98
2016-09-03T12:03:30.680Z,958.97
2016-09-03T12:04:43.990Z,958.96
2016-09-03T12:05:49.989Z,958.97
2016-09-03T12:06:45.121Z,958.98
2016-09-03T12:07:40.076Z,958.98
2016-09-03T12:08:44.476Z,958.95
2016-09-03T12:09:50.702Z,958.95
2016-09-03T12:10:49.187Z,958.97
2016-09-03T12:11:49.525Z,958.97
2016-09-03T12:12:39.424Z,958.92
2016-09-03T12:13:45.945Z,958.91
2016-09-03T12:14:44.973Z,958.93
2016-09-03T12:15:38.761Z,958.90
2016-09-03T12:16:51.854Z,958.91
2016-09-03T12:17:35.125Z,958.90
2016-09-03T12:18:55.121Z,958.86
2016-09-03T12:20:01.056Z,958.88
2016-09-03T12:20:22.059Z,958.86
2016-09-03T12:21:39.167Z,958.85
2016-09-03T12:22:54.061Z,958.91
2016-09-03T12:23:49.662Z,958.87
2016-09-03T12:24:39.959Z,958.90
2016-09-03T12:25:33.583Z,958.84
2016-09-03T12:26:32.622Z,958.87
2016-09-03T12:27:41.259Z,958.84
2016-09-03T12:28:45.379Z,958.83